Latest Coastal Weather Observations for Ngayawili (Elcho Island)

IDD60701

Issued at 1:35 am CST Friday 22 August 2014 (issued every 10 minutes, with the page automatically refreshed every 10 minutes)

About coastal observations | Map of coastal stations | Coastal observations for NT | Marine services | Other Formats
Station Details ID: 014517 Name: NGAYAWILI Lat: -12.00 Lon: 135.57 Height: 8.1 m
Data from the previous 72 hours. | See also: Recent months at Ngayawili (Elcho Island)
Date/Time
CST
Temp

°C
Wind Pressure Rain
since 9am
mm
Weather Cloud Vis
km
Sea
Height
m
Swell
Dir
 
Speed
knots
Gust
knots
hPa Trend Height
m
Period
s
Dir
22/01:30am 19.9 SE 9 13 1015.3 - 0.0 - - - - - - -
22/01:00am 19.9 SE 8 11 1015.5 - 0.0 - - - - - - -
22/12:30am 20.1 ESE 8 13 1015.7 - 0.0 - - - - - - -
22/12:00am 20.3 ESE 7 13 1015.9 - 0.0 - - - - - - -
 
Date/Time
CST
Temp

°C
Wind Pressure Rain
since 9am
mm
Weather Cloud Vis
km
Sea
Height
m
Swell
Dir
 
Speed
knots
Gust
knots
hPa Trend Height
m
Period
s
Dir
21/11:30pm 20.5 SE 8 11 1016.2 - 0.0 - - - - - - -
21/11:00pm 20.9 ESE 8 14 1016.1 - 0.0 - - - - - - -
21/10:30pm 21.2 ESE 9 13 1016.0 - 0.0 - - - - - - -
21/10:00pm 21.7 SE 9 14 1015.8 - 0.0 - - - - - - -
21/09:30pm 22.0 ESE 8 13 1015.6 - 0.0 - - - - - - -
21/09:00pm 22.3 ESE 8 14 1015.2 - 0.0 - - - - - - -
21/08:30pm 22.7 ESE 8 14 1015.0 - 0.0 - - - - - - -
21/08:00pm 23.0 ESE 7 12 1014.6 - 0.0 - - - - - - -
21/07:30pm 23.3 ESE 7 11 1014.3 - 0.0 - - - - - - -
21/07:00pm 23.7 ESE 8 12 1013.9 - 0.0 - - - - - - -
21/06:30pm 24.1 E 7 13 1013.4 - 0.0 - - - - - - -
21/06:00pm 24.9 E 9 16 1012.9 - 0.0 - - - - - - -
21/05:30pm 25.6 E 9 18 1012.7 - 0.0 - - - - - - -
21/05:00pm 26.6 E 8 13 1012.5 - 0.0 - - - - - - -
21/04:30pm 27.1 E 10 17 1012.2 - 0.0 - - - - - - -
21/04:00pm 27.5 E 11 17 1012.1 - 0.0 - - - - - - -
21/03:30pm 28.0 E 10 17 1012.2 - 0.0 - - - - - - -
21/03:00pm 27.9 E 11 16 1012.3 - 0.0 - - - - - - -
21/02:30pm 28.8 E 10 16 1012.6 - 0.0 - - - - - - -
21/02:00pm 28.4 ESE 10 17 1013.1 - 0.0 - - - - - - -
21/01:30pm 28.8 ESE 10 18 1013.5 - 0.0 - - - - - - -
21/01:00pm 28.6 ESE 9 16 1013.9 - 0.0 - - - - - - -
21/12:30pm 28.4 ESE 9 15 1014.5 - 0.0 - - - - - - -
21/12:00pm 28.1 SE 11 18 1014.7 - 0.0 - - - - - - -
21/11:30am 27.6 SE 11 18 1015.3 - 0.0 - - - - - - -
21/11:00am 26.8 SE 11 19 1015.7 - 0.0 - - - - - - -
21/10:30am 26.3 SE 9 16 1016.1 - 0.0 - - - - - - -
21/10:00am 24.6 ESE 10 15 1016.1 - 0.0 - - - - - - -
21/09:30am 24.1 ESE 10 16 1016.1 - 0.0 - - - - - - -
21/09:00am 23.2 SE 9 14 1015.9 - 0.0 - - - - - - -
21/08:30am 21.8 SE 6 10 1015.7 - 0.0 - - - - - - -
21/08:00am 20.9 SE 8 15 1015.4 - 0.0 - - - - - - -
21/07:30am 19.9 ESE 7 11 1015.0 - 0.0 - - - - - - -
21/07:00am 18.9 ESE 7 9 1014.7 - 0.0 - - - - - - -
21/06:30am 18.6 ESE 7 9 1014.3 - 0.0 - - - - - - -
21/06:00am 18.4 ESE 7 10 1013.8 - 0.0 - - - - - - -
21/05:30am 18.6 ESE 7 10 1013.6 - 0.0 - - - - - - -
21/05:00am 18.6 ESE 6 10 1013.4 - 0.0 - - - - - - -
21/04:30am 18.9 ESE 7 11 1013.2 - 0.0 - - - - - - -
21/04:00am 18.9 ESE 7 11 1013.2 - 0.0 - - - - - - -
21/03:30am 18.9 ESE 7 10 1013.1 - 0.0 - - - - - - -
21/03:00am 19.1 ESE 7 11 1013.3 - 0.0 - - - - - - -
21/02:30am 19.4 ESE 7 10 1013.7 - 0.0 - - - - - - -
21/02:00am 19.6 ESE 7 10 1013.9 - 0.0 - - - - - - -
21/01:30am 19.8 ESE 8 11 1014.2 - 0.0 - - - - - - -
21/01:00am 20.1 ESE 9 11 1014.4 - 0.0 - - - - - - -
21/12:30am 20.3 ESE 9 14 1014.6 - 0.0 - - - - - - -
21/12:00am 20.5 ESE 9 13 1014.8 - 0.0 - - - - - - -
 
Date/Time
CST
Temp

°C
Wind Pressure Rain
since 9am
mm
Weather Cloud Vis
km
Sea
Height
m
Swell
Dir
 
Speed
knots
Gust
knots
hPa Trend Height
m
Period
s
Dir
20/11:30pm 20.8 ESE 10 14 1015.0 - 0.0 - - - - - - -
20/11:00pm 21.0 ESE 8 13 1015.1 - 0.0 - - - - - - -
20/10:30pm 21.4 ESE 9 14 1015.1 - 0.0 - - - - - - -
20/10:00pm 21.9 ESE 9 16 1015.1 - 0.0 - - - - - - -
20/09:30pm 22.3 ESE 9 18 1015.2 - 0.0 - - - - - - -
20/09:00pm 22.8 ESE 8 13 1015.0 - 0.0 - - - - - - -
20/08:30pm 23.0 ESE 7 15 1014.9 - 0.0 - - - - - - -
20/08:00pm 23.0 ESE 5 8 1014.5 - 0.0 - - - - - - -
20/07:30pm 23.0 E 5 8 1014.0 - 0.0 - - - - - - -
20/07:00pm 23.4 E 5 6 1013.5 - 0.0 - - - - - - -
20/06:30pm 24.7 E 6 11 1013.2 - 0.0 - - - - - - -
20/06:00pm 25.8 E 7 11 1012.8 - 0.0 - - - - - - -
20/05:30pm 26.8 E 5 9 1012.6 - 0.0 - - - - - - -
20/05:00pm 27.7 E 7 13 1012.5 - 0.0 - - - - - - -
20/04:30pm 27.9 E 7 10 1012.3 - 0.0 - - - - - - -
20/04:00pm 28.1 ESE 8 15 1012.3 - 0.0 - - - - - - -
20/03:30pm 28.4 E 8 13 1012.4 - 0.0 - - - - - - -
20/03:00pm 28.4 E 8 14 1012.5 - 0.0 - - - - - - -
20/02:30pm 28.6 ESE 8 13 1013.1 - 0.0 - - - - - - -
20/02:00pm 29.0 E 7 12 1013.6 - 0.0 - - - - - - -
20/01:30pm 28.0 E 9 17 1014.0 - 0.0 - - - - - - -
20/01:00pm 27.6 E 9 17 1014.6 - 0.0 - - - - - - -
20/12:30pm 27.6 E 8 12 1015.1 - 0.0 - - - - - - -
20/12:00pm 27.0 ESE 10 14 1015.6 - 0.0 - - - - - - -
20/11:30am 26.5 E 9 15 1016.0 - 0.0 - - - - - - -
20/11:00am 26.9 E 8 14 1016.2 - 0.0 - - - - - - -
20/10:30am 25.7 ESE 10 16 1016.3 - 0.0 - - - - - - -
20/10:00am 25.3 ESE 9 14 1016.5 - 0.0 - - - - - - -
20/09:30am 24.7 E 8 14 1016.5 - 0.0 - - - - - - -
20/09:00am 23.4 ESE 8 14 1016.3 - 0.0 - - - - - - -
20/08:30am 21.8 SE 8 13 1016.3 - 0.0 - - - - - - -
20/08:00am 20.0 ESE 7 10 1016.0 - 0.0 - - - - - - -
20/07:30am 19.5 ESE 6 9 1015.9 - 0.0 - - - - - - -
20/07:00am 19.0 ESE 7 9 1015.7 - 0.0 - - - - - - -
20/06:30am 18.8 ESE 7 10 1015.5 - 0.0 - - - - - - -
20/06:00am 18.9 ESE 7 11 1015.1 - 0.0 - - - - - - -
20/05:30am 18.4 SE 6 9 1014.9 - 0.0 - - - - - - -
20/05:00am 18.7 ESE 7 10 1014.7 - 0.0 - - - - - - -
20/04:30am 18.8 ESE 7 9 1014.4 - 0.0 - - - - - - -
20/04:00am 19.0 ESE 8 10 1014.5 - 0.0 - - - - - - -
20/03:30am 19.0 ESE 7 11 1014.4 - 0.0 - - - - - - -
20/03:00am 19.2 ESE 8 11 1014.2 - 0.0 - - - - - - -
20/02:30am 19.4 ESE 8 12 1014.6 - 0.0 - - - - - - -
20/02:00am 19.6 ESE 8 12 1014.8 - 0.0 - - - - - - -
20/01:30am 19.8 ESE 8 12 1015.0 - 0.0 - - - - - - -
20/01:00am 20.0 ESE 9 13 1015.2 - 0.0 - - - - - - -
20/12:30am 20.1 ESE 9 17 1015.3 - 0.0 - - - - - - -
20/12:00am 20.2 ESE 8 12 1015.6 - 0.0 - - - - - - -
 
Date/Time
CST
Temp

°C
Wind Pressure Rain
since 9am
mm
Weather Cloud Vis
km
Sea
Height
m
Swell
Dir
 
Speed
knots
Gust
knots
hPa Trend Height
m
Period
s
Dir
19/11:30pm 20.4 ESE 9 14 1015.4 - 0.0 - - - - - - -
19/11:00pm 20.6 ESE 10 14 1015.4 - 0.0 - - - - - - -
19/10:30pm 20.8 ESE 9 14 1015.4 - 0.0 - - - - - - -
19/10:00pm 21.2 ESE 10 13 1015.4 - 0.0 - - - - - - -
19/09:30pm 21.7 ESE 10 17 1015.2 - 0.0 - - - - - - -
19/09:00pm 22.0 ESE 9 15 1015.0 - 0.0 - - - - - - -
19/08:30pm 22.3 ESE 7 11 1014.8 - 0.0 - - - - - - -
19/08:00pm 22.7 ESE 6 11 1014.4 - 0.0 - - - - - - -
19/07:30pm 22.9 E 7 11 1014.1 - 0.0 - - - - - - -
19/07:00pm 23.2 E 6 8 1013.5 - 0.0 - - - - - - -
19/06:30pm 23.6 E 5 7 1013.2 - 0.0 - - - - - - -
19/06:00pm 24.6 E 6 9 1012.9 - 0.0 - - - - - - -
19/05:30pm 25.5 E 6 9 1012.9 - 0.0 - - - - - - -
19/05:00pm 25.8 E 9 13 1012.9 - 0.0 - - - - - - -
19/04:30pm 26.5 ESE 8 14 1012.8 - 0.0 - - - - - - -
19/04:00pm 27.2 E 7 10 1012.8 - 0.0 - - - - - - -
19/03:30pm 27.9 E 8 12 1013.0 - 0.0 - - - - - - -
19/03:00pm 28.0 E 9 13 1013.0 - 0.0 - - - - - - -
19/02:30pm 28.5 SE 9 14 1013.6 - 0.0 - - - - - - -
19/02:00pm 28.6 SE 8 13 1014.1 - 0.0 - - - - - - -
19/01:30pm 27.8 ESE 9 14 1014.6 - 0.0 - - - - - - -
19/01:00pm 27.7 ESE 9 15 1015.2 - 0.0 - - - - - - -
19/12:30pm 27.2 ESE 7 13 1015.9 - 0.0 - - - - - - -
19/12:00pm 26.3 SE 10 16 1016.1 - 0.0 - - - - - - -
19/11:30am 26.3 SE 11 21 1016.8 - 0.0 - - - - - - -
19/11:00am 25.1 SE 10 17 1017.3 - 0.0 - - - - - - -
19/10:30am 24.6 SE 12 18 1017.6 - 0.0 - - - - - - -
19/10:00am 23.9 ESE 11 19 1017.8 - 0.0 - - - - - - -
19/09:30am 23.0 SE 12 19 1017.8 - 0.0 - - - - - - -
19/09:00am 22.0 SE 11 20 1017.8 - 0.0 - - - - - - -
19/08:30am 20.1 SE 7 10 1017.9 - 0.0 - - - - - - -
19/08:00am 19.2 SE 8 11 1017.6 - 0.0 - - - - - - -
19/07:30am 18.9 SE 8 12 1017.0 - 0.0 - - - - - - -
19/07:00am 18.4 SE 8 12 1016.7 - 0.0 - - - - - - -
19/06:30am 18.4 SE 10 16 1016.3 - 0.0 - - - - - - -
19/06:00am 18.2 SE 9 15 1015.9 - 0.0 - - - - - - -
19/05:30am 18.2 SE 9 14 1015.5 - 0.0 - - - - - - -
19/05:00am 17.9 SE 8 11 1015.3 - 0.0 - - - - - - -
19/04:30am 18.0 SE 7 9 1015.3 - 0.0 - - - - - - -
19/04:00am 17.9 SE 6 11 1015.3 - 0.0 - - - - - - -
19/03:30am 17.7 SE 6 8 1015.4 - 0.0 - - - - - - -
19/03:00am 18.2 SE 6 8 1015.4 - 0.0 - - - - - - -
19/02:30am 18.6 SE 6 9 1015.8 - 0.0 - - - - - - -
19/02:00am 18.9 SE 7 11 1015.7 - 0.0 - - - - - - -

Other Formats:

Comma delimited format used in spreadsheet applications
http://www.bom.gov.au/fwo/IDD60701/IDD60701.95146.axf

JavaScript Object Notation format (JSON) in row-major order
http://www.bom.gov.au/fwo/IDD60701/IDD60701.95146.json